sensor_id;sensor_type;location;lat;lon;timestamp;pressure;altitude;pressure_sealevel;temperature;humidity
78337;BME280;67610;51.588;7.002;2023-04-01T00:00:18;98598.78;;;11.54;72.96
78337;BME280;67610;51.588;7.002;2023-04-01T00:02:44;98593.50;;;11.54;73.09
78337;BME280;67610;51.588;7.002;2023-04-01T00:05:09;98601.63;;;11.53;72.83
78337;BME280;67610;51.588;7.002;2023-04-01T00:07:36;98598.41;;;11.51;73.13
78337;BME280;67610;51.588;7.002;2023-04-01T00:10:03;98591.72;;;11.48;73.40
78337;BME280;67610;51.588;7.002;2023-04-01T00:12:28;98594.31;;;11.55;73.21
78337;BME280;67610;51.588;7.002;2023-04-01T00:14:54;98593.94;;;11.51;73.53
78337;BME280;67610;51.588;7.002;2023-04-01T00:17:20;98591.94;;;11.47;73.79
78337;BME280;67610;51.588;7.002;2023-04-01T00:19:45;98585.03;;;11.46;74.03
78337;BME280;67610;51.588;7.002;2023-04-01T00:22:10;98587.88;;;11.44;73.93
78337;BME280;67610;51.588;7.002;2023-04-01T00:24:37;98584.25;;;11.39;74.30
78337;BME280;67610;51.588;7.002;2023-04-01T00:27:03;98586.47;;;11.42;73.94
78337;BME280;67610;51.588;7.002;2023-04-01T00:29:29;98577.97;;;11.40;73.99
78337;BME280;67610;51.588;7.002;2023-04-01T00:31:56;98588.06;;;11.43;73.96
78337;BME280;67610;51.588;7.002;2023-04-01T00:34:22;98586.25;;;11.43;74.08
78337;BME280;67610;51.588;7.002;2023-04-01T00:36:49;98576.53;;;11.50;73.75
78337;BME280;67610;51.588;7.002;2023-04-01T00:39:15;98582.00;;;11.49;73.58
78337;BME280;67610;51.588;7.002;2023-04-01T00:41:40;98582.59;;;11.51;73.47
78337;BME280;67610;51.588;7.002;2023-04-01T00:46:44;98587.66;;;11.46;73.44
78337;BME280;67610;51.588;7.002;2023-04-01T00:49:09;98578.56;;;11.42;73.92
78337;BME280;67610;51.588;7.002;2023-04-01T00:51:37;98584.84;;;11.41;73.84
78337;BME280;67610;51.588;7.002;2023-04-01T00:54:03;98578.75;;;11.40;73.96
78337;BME280;67610;51.588;7.002;2023-04-01T00:56:35;98580.19;;;11.43;73.83
78337;BME280;67610;51.588;7.002;2023-04-01T00:59:08;98580.59;;;11.46;73.90
78337;BME280;67610;51.588;7.002;2023-04-01T01:01:36;98581.78;;;11.50;73.67
78337;BME280;67610;51.588;7.002;2023-04-01T01:04:02;98577.97;;;11.46;73.66
78337;BME280;67610;51.588;7.002;2023-04-01T01:06:35;98582.63;;;11.44;73.71
78337;BME280;67610;51.588;7.002;2023-04-01T01:09:40;98576.56;;;11.37;74.25
78337;BME280;67610;51.588;7.002;2023-04-01T01:12:15;98580.00;;;11.44;74.07
78337;BME280;67610;51.588;7.002;2023-04-01T01:28:44;98568.47;;;11.32;74.34
78337;BME280;67610;51.588;7.002;2023-04-01T01:36:40;98564.44;;;11.30;74.56
78337;BME280;67610;51.588;7.002;2023-04-01T01:39:08;98561.59;;;11.31;74.45
78337;BME280;67610;51.588;7.002;2023-04-01T01:41:35;98562.41;;;11.32;74.55
78337;BME280;67610;51.588;7.002;2023-04-01T01:44:04;98564.84;;;11.33;74.41
78337;BME280;67610;51.588;7.002;2023-04-01T01:46:32;98561.19;;;11.34;74.37
78337;BME280;67610;51.588;7.002;2023-04-01T01:48:59;98551.88;;;11.32;74.42
78337;BME280;67610;51.588;7.002;2023-04-01T01:51:26;98554.31;;;11.33;74.38
78337;BME280;67610;51.588;7.002;2023-04-01T01:53:53;98551.06;;;11.31;74.13
78337;BME280;67610;51.588;7.002;2023-04-01T01:56:19;98554.31;;;11.33;74.17
78337;BME280;67610;51.588;7.002;2023-04-01T01:58:50;98556.31;;;11.38;73.91
78337;BME280;67610;51.588;7.002;2023-04-01T02:01:23;98555.72;;;11.42;73.83
78337;BME280;67610;51.588;7.002;2023-04-01T02:03:50;98558.94;;;11.31;74.23
78337;BME280;67610;51.588;7.002;2023-04-01T02:06:21;98559.16;;;11.30;74.38
78337;BME280;67610;51.588;7.002;2023-04-01T02:08:54;98552.13;;;11.23;74.69
78337;BME280;67610;51.588;7.002;2023-04-01T02:11:30;98561.22;;;11.21;74.63
78337;BME280;67610;51.588;7.002;2023-04-01T02:14:07;98562.03;;;11.28;74.60
78337;BME280;67610;51.588;7.002;2023-04-01T02:16:45;98571.13;;;11.32;73.99
78337;BME280;67610;51.588;7.002;2023-04-01T02:19:13;98560.38;;;11.27;74.39
78337;BME280;67610;51.588;7.002;2023-04-01T02:21:39;98559.56;;;11.27;74.55
78337;BME280;67610;51.588;7.002;2023-04-01T02:24:09;98559.19;;;11.23;74.54
78337;BME280;67610;51.588;7.002;2023-04-01T02:26:36;98560.19;;;11.22;74.68
78337;BME280;67610;51.588;7.002;2023-04-01T02:29:03;98552.72;;;11.19;74.34
78337;BME280;67610;51.588;7.002;2023-04-01T02:31:31;98563.25;;;11.19;74.50
78337;BME280;67610;51.588;7.002;2023-04-01T02:33:57;98557.56;;;11.22;74.56
78337;BME280;67610;51.588;7.002;2023-04-01T02:36:23;98557.38;;;11.23;74.31
78337;BME280;67610;51.588;7.002;2023-04-01T02:38:49;98557.56;;;11.22;74.31
78337;BME280;67610;51.588;7.002;2023-04-01T02:41:15;98566.88;;;11.24;73.95
78337;BME280;67610;51.588;7.002;2023-04-01T02:43:40;98568.69;;;11.31;74.03
78337;BME280;67610;51.588;7.002;2023-04-01T02:46:06;98572.72;;;11.27;73.92
78337;BME280;67610;51.588;7.002;2023-04-01T02:48:31;98567.09;;;11.16;74.22
78337;BME280;67610;51.588;7.002;2023-04-01T02:50:57;98578.81;;;11.20;74.34
78337;BME280;67610;51.588;7.002;2023-04-01T02:53:22;98586.31;;;11.23;74.12
78337;BME280;67610;51.588;7.002;2023-04-01T02:55:47;98576.41;;;11.19;74.17
78337;BME280;67610;51.588;7.002;2023-04-01T02:58:16;98572.34;;;11.23;74.28
78337;BME280;67610;51.588;7.002;2023-04-01T03:00:41;98582.88;;;11.23;74.34
78337;BME280;67610;51.588;7.002;2023-04-01T03:03:06;98594.41;;;11.22;74.60
78337;BME280;67610;51.588;7.002;2023-04-01T03:05:32;98593.19;;;11.18;74.59
78337;BME280;67610;51.588;7.002;2023-04-01T03:07:57;98598.47;;;11.18;74.60
78337;BME280;67610;51.588;7.002;2023-04-01T03:10:23;98602.28;;;11.22;74.32
78337;BME280;67610;51.588;7.002;2023-04-01T03:12:48;98593.63;;;11.21;74.71
78337;BME280;67610;51.588;7.002;2023-04-01T03:15:14;98596.84;;;11.17;74.78
78337;BME280;67610;51.588;7.002;2023-04-01T03:17:41;98597.25;;;11.20;74.50
78337;BME280;67610;51.588;7.002;2023-04-01T03:20:07;98598.06;;;11.21;74.73
78337;BME280;67610;51.588;7.002;2023-04-01T03:22:34;98594.84;;;11.19;74.76
78337;BME280;67610;51.588;7.002;2023-04-01T03:25:01;98605.34;;;11.19;74.91
78337;BME280;67610;51.588;7.002;2023-04-01T03:27:26;98598.88;;;11.15;74.97
78337;BME280;67610;51.588;7.002;2023-04-01T03:29:51;98601.69;;;11.20;74.99
78337;BME280;67610;51.588;7.002;2023-04-01T03:32:17;98603.09;;;11.22;75.25
78337;BME280;67610;51.588;7.002;2023-04-01T03:34:42;98606.16;;;11.19;75.22
78337;BME280;67610;51.588;7.002;2023-04-01T03:37:07;98607.78;;;11.14;75.50
78337;BME280;67610;51.588;7.002;2023-04-01T03:39:33;98603.13;;;11.16;75.35
78337;BME280;67610;51.588;7.002;2023-04-01T03:41:58;98609.00;;;11.18;75.41
78337;BME280;67610;51.588;7.002;2023-04-01T03:44:24;98601.31;;;11.16;75.54
78337;BME280;67610;51.588;7.002;2023-04-01T03:46:50;98606.16;;;11.19;75.53
78337;BME280;67610;51.588;7.002;2023-04-01T03:49:15;98610.19;;;11.22;75.43
78337;BME280;67610;51.588;7.002;2023-04-01T03:51:42;98607.78;;;11.20;75.59
78337;BME280;67610;51.588;7.002;2023-04-01T03:54:08;98610.59;;;11.26;75.54
78337;BME280;67610;51.588;7.002;2023-04-01T03:56:34;98607.34;;;11.30;75.22
78337;BME280;67610;51.588;7.002;2023-04-01T03:59:03;98607.53;;;11.29;75.32
78337;BME280;67610;51.588;7.002;2023-04-01T04:01:29;98616.47;;;11.21;75.56
78337;BME280;67610;51.588;7.002;2023-04-01T04:03:55;98613.84;;;11.21;75.77
78337;BME280;67610;51.588;7.002;2023-04-01T04:06:20;98610.63;;;11.19;75.81
78337;BME280;67610;51.588;7.002;2023-04-01T04:08:46;98610.63;;;11.19;75.94
78337;BME280;67610;51.588;7.002;2023-04-01T04:11:12;98613.63;;;11.22;75.91
78337;BME280;67610;51.588;7.002;2023-04-01T04:13:37;98611.81;;;11.23;75.78
78337;BME280;67610;51.588;7.002;2023-04-01T04:16:03;98617.91;;;11.23;75.65
78337;BME280;67610;51.588;7.002;2023-04-01T04:18:29;98613.41;;;11.24;75.64
78337;BME280;67610;51.588;7.002;2023-04-01T04:20:54;98618.50;;;11.26;75.41
78337;BME280;67610;51.588;7.002;2023-04-01T04:23:20;98618.06;;;11.29;75.45
78337;BME280;67610;51.588;7.002;2023-04-01T04:25:56;98621.94;;;11.26;75.58
78337;BME280;67610;51.588;7.002;2023-04-01T04:28:21;98612.03;;;11.28;75.33
78337;BME280;67610;51.588;7.002;2023-04-01T04:30:47;98629.81;;;11.33;75.20
78337;BME280;67610;51.588;7.002;2023-04-01T04:33:12;98620.28;;;11.32;75.10
78337;BME280;67610;51.588;7.002;2023-04-01T04:35:38;98621.94;;;11.26;75.36
78337;BME280;67610;51.588;7.002;2023-04-01T04:38:03;98627.59;;;11.30;75.24
78337;BME280;67610;51.588;7.002;2023-04-01T04:40:29;98626.59;;;11.31;75.03
78337;BME280;67610;51.588;7.002;2023-04-01T04:42:54;98632.47;;;11.26;75.20
78337;BME280;67610;51.588;7.002;2023-04-01T04:45:19;98628.22;;;11.25;75.39
78337;BME280;67610;51.588;7.002;2023-04-01T04:47:45;98632.28;;;11.21;75.76
78337;BME280;67610;51.588;7.002;2023-04-01T04:50:10;98637.31;;;11.22;75.69
78337;BME280;67610;51.588;7.002;2023-04-01T04:52:37;98637.72;;;11.26;75.66
78337;BME280;67610;51.588;7.002;2023-04-01T04:55:02;98642.19;;;11.26;75.41
78337;BME280;67610;51.588;7.002;2023-04-01T04:57:28;98631.06;;;11.23;75.63
78337;BME280;67610;51.588;7.002;2023-04-01T04:59:53;98639.72;;;11.24;75.57
78337;BME280;67610;51.588;7.002;2023-04-01T05:02:18;98639.34;;;11.27;75.40
78337;BME280;67610;51.588;7.002;2023-04-01T05:04:44;98643.78;;;11.27;75.38
78337;BME280;67610;51.588;7.002;2023-04-01T05:07:09;98649.03;;;11.27;75.54
78337;BME280;67610;51.588;7.002;2023-04-01T05:09:34;98641.97;;;11.27;75.50
78337;BME280;67610;51.588;7.002;2023-04-01T05:12:00;98661.59;;;11.31;75.53
78337;BME280;67610;51.588;7.002;2023-04-01T05:14:25;98650.47;;;11.29;75.26
78337;BME280;67610;51.588;7.002;2023-04-01T05:16:51;98648.84;;;11.35;75.03
78337;BME280;67610;51.588;7.002;2023-04-01T05:19:16;98653.28;;;11.34;75.23
78337;BME280;67610;51.588;7.002;2023-04-01T05:21:41;98658.78;;;11.33;75.25
78337;BME280;67610;51.588;7.002;2023-04-01T05:24:08;98649.66;;;11.35;74.85
78337;BME280;67610;51.588;7.002;2023-04-01T05:26:34;98652.69;;;11.32;74.99
78337;BME280;67610;51.588;7.002;2023-04-01T05:29:00;98667.06;;;11.30;75.20
78337;BME280;67610;51.588;7.002;2023-04-01T05:31:25;98658.16;;;11.24;75.49
78337;BME280;67610;51.588;7.002;2023-04-01T05:33:51;98652.28;;;11.29;75.29
78337;BME280;67610;51.588;7.002;2023-04-01T05:36:16;98656.75;;;11.28;75.57
78337;BME280;67610;51.588;7.002;2023-04-01T05:38:42;98663.81;;;11.34;74.92
78337;BME280;67610;51.588;7.002;2023-04-01T05:41:09;98662.81;;;11.35;74.84
78337;BME280;67610;51.588;7.002;2023-04-01T05:43:38;98666.06;;;11.31;75.14
78337;BME280;67610;51.588;7.002;2023-04-01T05:46:04;98667.28;;;11.28;75.53
78337;BME280;67610;51.588;7.002;2023-04-01T05:48:30;98673.16;;;11.30;75.51
78337;BME280;67610;51.588;7.002;2023-04-01T05:50:55;98669.50;;;11.31;75.36
78337;BME280;67610;51.588;7.002;2023-04-01T05:53:21;98671.13;;;11.32;75.30
78337;BME280;67610;51.588;7.002;2023-04-01T05:55:47;98665.47;;;11.35;75.32
78337;BME280;67610;51.588;7.002;2023-04-01T05:58:13;98677.19;;;11.33;75.10
78337;BME280;67610;51.588;7.002;2023-04-01T06:00:38;98671.91;;;11.39;75.49
78337;BME280;67610;51.588;7.002;2023-04-01T06:03:04;98670.28;;;11.38;75.60
78337;BME280;67610;51.588;7.002;2023-04-01T06:05:33;98674.94;;;11.36;75.63
78337;BME280;67610;51.588;7.002;2023-04-01T06:08:10;98677.41;;;11.38;75.59
78337;BME280;67610;51.588;7.002;2023-04-01T06:10:51;98678.38;;;11.43;75.66
78337;BME280;67610;51.588;7.002;2023-04-01T06:13:34;98691.16;;;11.46;75.47
78337;BME280;67610;51.588;7.002;2023-04-01T06:19:35;98688.13;;;11.49;75.29
78337;BME280;67610;51.588;7.002;2023-04-01T06:22:26;98687.31;;;11.49;75.12
78337;BME280;67610;51.588;7.002;2023-04-01T06:25:34;98692.75;;;11.47;75.14
78337;BME280;67610;51.588;7.002;2023-04-01T06:31:05;98695.38;;;11.47;75.13
78337;BME280;67610;51.588;7.002;2023-04-01T06:45:06;98700.03;;;11.78;78.14
78337;BME280;67610;51.588;7.002;2023-04-01T06:47:45;98701.56;;;12.05;75.30
78337;BME280;67610;51.588;7.002;2023-04-01T06:55:32;98716.25;;;11.68;74.69
78337;BME280;67610;51.588;7.002;2023-04-01T06:58:04;98704.88;;;11.61;74.79
78337;BME280;67610;51.588;7.002;2023-04-01T07:00:43;98709.75;;;11.64;74.53
78337;BME280;67610;51.588;7.002;2023-04-01T07:03:23;98711.81;;;11.69;74.23
78337;BME280;67610;51.588;7.002;2023-04-01T07:05:52;98710.56;;;11.65;74.48
78337;BME280;67610;51.588;7.002;2023-04-01T07:08:25;98716.66;;;11.65;74.32
78337;BME280;67610;51.588;7.002;2023-04-01T07:11:06;98716.66;;;11.65;73.94
78337;BME280;67610;51.588;7.002;2023-04-01T07:13:58;98727.97;;;11.59;74.58
78337;BME280;67610;51.588;7.002;2023-04-01T07:16:35;98722.69;;;11.66;74.37
78337;BME280;67610;51.588;7.002;2023-04-01T07:21:36;98724.94;;;11.62;74.53
78337;BME280;67610;51.588;7.002;2023-04-01T07:24:12;98728.19;;;11.64;74.86
78337;BME280;67610;51.588;7.002;2023-04-01T07:26:40;98733.69;;;11.69;74.67
78337;BME280;67610;51.588;7.002;2023-04-01T07:29:14;98728.41;;;11.69;74.75
78337;BME280;67610;51.588;7.002;2023-04-01T07:31:52;98736.09;;;11.71;74.86
78337;BME280;67610;51.588;7.002;2023-04-01T07:34:26;98738.34;;;11.74;74.37
78337;BME280;67610;51.588;7.002;2023-04-01T07:45:34;98743.81;;;11.72;74.73
78337;BME280;67610;51.588;7.002;2023-04-01T07:48:29;98749.69;;;11.74;74.73
78337;BME280;67610;51.588;7.002;2023-04-01T08:01:52;98755.13;;;11.79;74.25
78337;BME280;67610;51.588;7.002;2023-04-01T08:07:15;98762.03;;;11.80;74.28
78337;BME280;67610;51.588;7.002;2023-04-01T08:15:35;98777.81;;;11.80;74.46
78337;BME280;67610;51.588;7.002;2023-04-01T08:18:39;98779.84;;;11.78;74.59
78337;BME280;67610;51.588;7.002;2023-04-01T08:20:59;98782.28;;;11.73;74.60
78337;BME280;67610;51.588;7.002;2023-04-01T08:23:28;98783.72;;;11.76;74.93
78337;BME280;67610;51.588;7.002;2023-04-01T08:28:53;98795.25;;;11.81;74.57
78337;BME280;67610;51.588;7.002;2023-04-01T08:31:40;98783.09;;;11.87;74.72
78337;BME280;67610;51.588;7.002;2023-04-01T08:34:18;98796.47;;;11.85;74.79
78337;BME280;67610;51.588;7.002;2023-04-01T08:36:50;98791.41;;;11.90;74.65
78337;BME280;67610;51.588;7.002;2023-04-01T08:39:29;98794.03;;;11.90;74.50
78337;BME280;67610;51.588;7.002;2023-04-01T08:42:07;98798.06;;;11.86;74.79
78337;BME280;67610;51.588;7.002;2023-04-01T09:04:34;98826.47;;;11.98;74.65
78337;BME280;67610;51.588;7.002;2023-04-01T09:10:09;98834.53;;;12.03;74.60
78337;BME280;67610;51.588;7.002;2023-04-01T09:15:47;98837.81;;;12.05;74.62
78337;BME280;67610;51.588;7.002;2023-04-01T09:23:47;98844.66;;;12.19;74.40
78337;BME280;67610;51.588;7.002;2023-04-01T09:26:36;98849.50;;;12.22;74.56
78337;BME280;67610;51.588;7.002;2023-04-01T09:35:00;98858.22;;;12.29;74.25
78337;BME280;67610;51.588;7.002;2023-04-01T09:37:36;98859.41;;;12.33;74.27
78337;BME280;67610;51.588;7.002;2023-04-01T09:45:46;98868.31;;;12.45;74.08
78337;BME280;67610;51.588;7.002;2023-04-01T09:48:36;98875.22;;;12.46;74.12
78337;BME280;67610;51.588;7.002;2023-04-01T09:54:02;98882.72;;;12.49;74.15
78337;BME280;67610;51.588;7.002;2023-04-01T09:57:02;98884.56;;;12.48;74.14
78337;BME280;67610;51.588;7.002;2023-04-01T10:02:52;98887.19;;;12.55;74.20
78337;BME280;67610;51.588;7.002;2023-04-01T10:10:53;98891.41;;;12.69;73.92
78337;BME280;67610;51.588;7.002;2023-04-01T10:22:07;98901.53;;;12.79;73.73
78337;BME280;67610;51.588;7.002;2023-04-01T10:24:35;98900.09;;;12.83;73.90
78337;BME280;67610;51.588;7.002;2023-04-01T10:27:30;98906.56;;;12.87;73.40
78337;BME280;67610;51.588;7.002;2023-04-01T10:33:13;98915.50;;;12.79;73.33
78337;BME280;67610;51.588;7.002;2023-04-01T10:35:57;98916.50;;;12.85;73.28
78337;BME280;67610;51.588;7.002;2023-04-01T10:41:53;98923.22;;;12.87;73.26
78337;BME280;67610;51.588;7.002;2023-04-01T10:50:04;98921.78;;;12.91;73.67
78337;BME280;67610;51.588;7.002;2023-04-01T11:02:08;98934.13;;;13.10;73.46
78337;BME280;67610;51.588;7.002;2023-04-01T11:16:52;98955.56;;;13.34;72.56
78337;BME280;67610;51.588;7.002;2023-04-01T11:22:32;98960.44;;;13.37;72.32
78337;BME280;67610;51.588;7.002;2023-04-01T11:28:21;98965.25;;;13.40;72.13
78337;BME280;67610;51.588;7.002;2023-04-01T11:31:27;98960.75;;;13.47;72.16
78337;BME280;67610;51.588;7.002;2023-04-01T11:39:37;98981.72;;;13.42;72.02
78337;BME280;67610;51.588;7.002;2023-04-01T11:50:23;98985.25;;;13.22;72.25
78337;BME280;67610;51.588;7.002;2023-04-01T11:53:08;98996.22;;;13.19;72.63
78337;BME280;67610;51.588;7.002;2023-04-01T11:58:53;99001.50;;;13.19;72.26
78337;BME280;67610;51.588;7.002;2023-04-01T12:01:23;99002.72;;;13.17;72.29
78337;BME280;67610;51.588;7.002;2023-04-01T12:04:23;99002.56;;;13.05;72.58
78337;BME280;67610;51.588;7.002;2023-04-01T12:06:59;99018.56;;;13.04;72.80
78337;BME280;67610;51.588;7.002;2023-04-01T12:09:44;99025.91;;;13.08;72.62
78337;BME280;67610;51.588;7.002;2023-04-01T12:12:42;99021.84;;;13.06;72.49
78337;BME280;67610;51.588;7.002;2023-04-01T12:17:48;99026.69;;;12.96;72.66
78337;BME280;67610;51.588;7.002;2023-04-01T12:26:21;99041.72;;;12.95;72.87
78337;BME280;67610;51.588;7.002;2023-04-01T12:31:34;99045.78;;;12.91;73.09
78337;BME280;67610;51.588;7.002;2023-04-01T12:40:03;99051.50;;;12.95;72.93
78337;BME280;67610;51.588;7.002;2023-04-01T12:42:35;99059.59;;;12.93;73.17
78337;BME280;67610;51.588;7.002;2023-04-01T12:48:16;99067.31;;;13.01;73.03
78337;BME280;67610;51.588;7.002;2023-04-01T12:56:33;99072.59;;;13.08;72.00
78337;BME280;67610;51.588;7.002;2023-04-01T12:59:23;99074.81;;;12.98;72.61
78337;BME280;67610;51.588;7.002;2023-04-01T13:15:58;99098.56;;;13.04;72.57
78337;BME280;67610;51.588;7.002;2023-04-01T13:27:12;99113.41;;;13.05;72.52
78337;BME280;67610;51.588;7.002;2023-04-01T13:30:00;99120.47;;;13.05;72.61
78337;BME280;67610;51.588;7.002;2023-04-01T13:32:47;99120.34;;;13.06;72.50
78337;BME280;67610;51.588;7.002;2023-04-01T13:35:39;99125.19;;;13.09;72.79
78337;BME280;67610;51.588;7.002;2023-04-01T13:41:35;99127.81;;;13.16;72.47
78337;BME280;67610;51.588;7.002;2023-04-01T13:44:37;99137.97;;;13.12;72.63
78337;BME280;67610;51.588;7.002;2023-04-01T13:47:24;99138.19;;;13.17;71.92
78337;BME280;67610;51.588;7.002;2023-04-01T13:55:28;99143.88;;;13.14;72.65
78337;BME280;67610;51.588;7.002;2023-04-01T14:04:03;99146.94;;;13.18;72.38
78337;BME280;67610;51.588;7.002;2023-04-01T14:12:53;99157.06;;;13.21;72.10
78337;BME280;67610;51.588;7.002;2023-04-01T14:15:54;99167.22;;;13.17;72.08
78337;BME280;67610;51.588;7.002;2023-04-01T14:18:51;99161.53;;;13.07;72.46
78337;BME280;67610;51.588;7.002;2023-04-01T14:24:45;99177.38;;;13.07;72.75
78337;BME280;67610;51.588;7.002;2023-04-01T14:27:34;99176.53;;;13.07;72.80
78337;BME280;67610;51.588;7.002;2023-04-01T14:33:11;99187.09;;;13.07;72.87
78337;BME280;67610;51.588;7.002;2023-04-01T14:36:12;99188.13;;;13.06;73.00
78337;BME280;67610;51.588;7.002;2023-04-01T14:38:54;99188.75;;;13.14;72.69
78337;BME280;67610;51.588;7.002;2023-04-01T14:41:44;99196.28;;;13.11;72.71
78337;BME280;67610;51.588;7.002;2023-04-01T14:44:24;99197.09;;;13.18;72.62
78337;BME280;67610;51.588;7.002;2023-04-01T14:50:05;99192.00;;;13.29;72.22
78337;BME280;67610;51.588;7.002;2023-04-01T14:52:35;99203.56;;;13.28;72.32
78337;BME280;67610;51.588;7.002;2023-04-01T14:55:17;99200.72;;;13.30;72.29
78337;BME280;67610;51.588;7.002;2023-04-01T14:58:19;99203.38;;;13.37;72.18
78337;BME280;67610;51.588;7.002;2023-04-01T15:03:28;99211.72;;;13.27;72.14
78337;BME280;67610;51.588;7.002;2023-04-01T15:08:33;99211.28;;;13.30;72.54
78337;BME280;67610;51.588;7.002;2023-04-01T15:22:38;99236.88;;;13.43;72.12
78337;BME280;67610;51.588;7.002;2023-04-01T15:24:46;99235.28;;;13.48;71.99
78337;BME280;67610;51.588;7.002;2023-04-01T15:36:10;99250.69;;;13.45;71.85
78337;BME280;67610;51.588;7.002;2023-04-01T15:50:17;99263.91;;;13.25;72.16
78337;BME280;67610;51.588;7.002;2023-04-01T16:04:15;99276.81;;;13.00;72.48
78337;BME280;67610;51.588;7.002;2023-04-01T16:12:50;99278.84;;;12.98;72.41
78337;BME280;67610;51.588;7.002;2023-04-01T16:16:04;99290.38;;;12.91;72.50
78337;BME280;67610;51.588;7.002;2023-04-01T16:21:27;99301.50;;;12.73;73.32
78337;BME280;67610;51.588;7.002;2023-04-01T16:26:44;99314.91;;;12.72;73.46
78337;BME280;67610;51.588;7.002;2023-04-01T16:29:28;99314.50;;;12.75;73.48
78337;BME280;67610;51.588;7.002;2023-04-01T16:32:27;99316.34;;;12.74;73.58
78337;BME280;67610;51.588;7.002;2023-04-01T16:35:01;99319.97;;;12.73;73.25
78337;BME280;67610;51.588;7.002;2023-04-01T16:37:38;99322.59;;;12.67;73.72
78337;BME280;67610;51.588;7.002;2023-04-01T16:40:33;99330.91;;;12.70;73.66
78337;BME280;67610;51.588;7.002;2023-04-01T16:43:12;99327.91;;;12.73;73.85
78337;BME280;67610;51.588;7.002;2023-04-01T16:45:43;99336.41;;;12.75;73.54
78337;BME280;67610;51.588;7.002;2023-04-01T16:48:15;99336.81;;;12.72;73.80
78337;BME280;67610;51.588;7.002;2023-04-01T16:50:46;99342.72;;;12.74;73.64
78337;BME280;67610;51.588;7.002;2023-04-01T16:53:25;99344.53;;;12.74;73.95
78337;BME280;67610;51.588;7.002;2023-04-01T16:58:36;99361.59;;;12.78;73.80
78337;BME280;67610;51.588;7.002;2023-04-01T17:01:24;99367.84;;;12.70;74.06
78337;BME280;67610;51.588;7.002;2023-04-01T17:04:06;99364.44;;;12.76;73.90
78337;BME280;67610;51.588;7.002;2023-04-01T17:06:51;99367.47;;;12.73;73.93
78337;BME280;67610;51.588;7.002;2023-04-01T17:15:13;99378.63;;;12.75;73.78
78337;BME280;67610;51.588;7.002;2023-04-01T17:20:56;99388.41;;;12.81;73.72
78337;BME280;67610;51.588;7.002;2023-04-01T17:23:36;99402.22;;;12.83;73.73
78337;BME280;67610;51.588;7.002;2023-04-01T17:26:32;99399.78;;;12.82;73.82
78337;BME280;67610;51.588;7.002;2023-04-01T17:29:10;99399.97;;;12.80;73.67
78337;BME280;67610;51.588;7.002;2023-04-01T17:31:42;99408.88;;;12.79;73.69
78337;BME280;67610;51.588;7.002;2023-04-01T17:42:16;99418.81;;;12.77;73.84
78337;BME280;67610;51.588;7.002;2023-04-01T17:56:03;99432.59;;;12.73;74.38
78337;BME280;67610;51.588;7.002;2023-04-01T17:58:44;99442.34;;;12.72;74.28
78337;BME280;67610;51.588;7.002;2023-04-01T18:01:20;99451.69;;;12.75;74.25
78337;BME280;67610;51.588;7.002;2023-04-01T18:03:55;99447.22;;;12.75;74.23
78337;BME280;67610;51.588;7.002;2023-04-01T18:12:03;99463.44;;;12.72;74.33
78337;BME280;67610;51.588;7.002;2023-04-01T18:25:36;99489.38;;;12.62;74.47
78337;BME280;67610;51.588;7.002;2023-04-01T18:28:23;99498.09;;;12.63;74.75
78337;BME280;67610;51.588;7.002;2023-04-01T18:38:55;99521.72;;;12.49;74.83
78337;BME280;67610;51.588;7.002;2023-04-01T18:41:34;99521.69;;;12.43;74.94
78337;BME280;67610;51.588;7.002;2023-04-01T18:46:48;99533.16;;;12.35;75.01
78337;BME280;67610;51.588;7.002;2023-04-01T18:49:21;99542.28;;;12.33;74.92
78337;BME280;67610;51.588;7.002;2023-04-01T18:54:43;99554.81;;;12.31;74.60
78337;BME280;67610;51.588;7.002;2023-04-01T18:57:15;99558.66;;;12.07;74.36
78337;BME280;67610;51.588;7.002;2023-04-01T19:05:39;99570.06;;;11.93;74.68
78337;BME280;67610;51.588;7.002;2023-04-01T19:21:57;99613.69;;;11.66;74.88
78337;BME280;67610;51.588;7.002;2023-04-01T19:30:10;99629.03;;;11.63;74.71
78337;BME280;67610;51.588;7.002;2023-04-01T19:35:26;99642.75;;;11.58;74.68
78337;BME280;67610;51.588;7.002;2023-04-01T19:38:04;99640.47;;;11.55;74.30
78337;BME280;67610;51.588;7.002;2023-04-01T19:46:14;99651.75;;;11.35;74.75
78337;BME280;67610;51.588;7.002;2023-04-01T20:04:39;99703.44;;;11.13;74.17
78337;BME280;67610;51.588;7.002;2023-04-01T20:07:23;99706.06;;;11.13;74.23
78337;BME280;67610;51.588;7.002;2023-04-01T20:17:45;99726.78;;;10.93;74.76
78337;BME280;67610;51.588;7.002;2023-04-01T20:22:57;99737.19;;;10.87;74.34
78337;BME280;67610;51.588;7.002;2023-04-01T20:28:11;99742.16;;;10.82;73.91
78337;BME280;67610;51.588;7.002;2023-04-01T20:41:52;99785.19;;;10.58;73.50
78337;BME280;67610;51.588;7.002;2023-04-01T20:50:26;99805.34;;;10.35;74.23
78337;BME280;67610;51.588;7.002;2023-04-01T20:55:38;99811.88;;;10.39;74.56
78337;BME280;67610;51.588;7.002;2023-04-01T21:03:29;99818.69;;;10.25;74.54
78337;BME280;67610;51.588;7.002;2023-04-01T21:14:42;99853.03;;;10.24;74.39
78337;BME280;67610;51.588;7.002;2023-04-01T21:17:17;99840.84;;;10.23;73.97
78337;BME280;67610;51.588;7.002;2023-04-01T21:20:03;99860.06;;;10.23;74.14
78337;BME280;67610;51.588;7.002;2023-04-01T21:28:34;99871.25;;;10.09;74.60
78337;BME280;67610;51.588;7.002;2023-04-01T21:31:12;99888.66;;;10.10;74.82
78337;BME280;67610;51.588;7.002;2023-04-01T21:36:49;99904.75;;;10.15;73.02
78337;BME280;67610;51.588;7.002;2023-04-01T21:44:51;99914.63;;;9.89;74.44
78337;BME280;67610;51.588;7.002;2023-04-01T21:56:00;99944.00;;;9.84;74.71
78337;BME280;67610;51.588;7.002;2023-04-01T22:09:38;99985.03;;;9.77;72.67
78337;BME280;67610;51.588;7.002;2023-04-01T22:12:13;99988.75;;;9.67;73.21
78337;BME280;67610;51.588;7.002;2023-04-01T22:15:20;99990.75;;;9.73;73.14
78337;BME280;67610;51.588;7.002;2023-04-01T22:20:35;100019.97;;;9.70;73.18
78337;BME280;67610;51.588;7.002;2023-04-01T22:23:11;100013.22;;;9.59;73.13